createdAt,value
2023-04-24T00:02:19.115Z,13.52
2023-04-24T00:07:24.937Z,13.48
2023-04-24T00:12:29.438Z,9.07
2023-04-24T00:17:33.753Z,9.25
2023-04-24T00:22:39.698Z,10.13
2023-04-24T00:27:44.160Z,11.43
2023-04-24T00:32:49.156Z,6.75
2023-04-24T00:37:54.993Z,11.90
2023-04-24T00:42:59.140Z,7.60
2023-04-24T00:48:04.199Z,7.85
2023-04-24T00:53:10.057Z,7.85
2023-04-24T00:58:15.300Z,8.93
2023-04-24T01:03:21.095Z,7.97
2023-04-24T01:08:28.796Z,11.30
2023-04-24T01:13:35.177Z,10.13
2023-04-24T01:18:40.790Z,12.32
2023-04-24T01:23:46.757Z,12.45
2023-04-24T01:28:51.217Z,16.65
2023-04-24T01:33:56.275Z,17.70
2023-04-24T01:39:02.194Z,10.48
2023-04-24T01:44:06.486Z,15.75
2023-04-24T01:49:10.904Z,17.20
2023-04-24T01:54:17.623Z,14.52
2023-04-24T01:59:24.113Z,16.02
2023-04-24T02:04:28.325Z,16.33
2023-04-24T02:09:34.081Z,12.13
2023-04-24T02:14:39.068Z,10.10
2023-04-24T02:19:43.716Z,14.82
2023-04-24T02:24:49.838Z,10.13
2023-04-24T02:29:54.264Z,12.90
2023-04-24T02:34:58.760Z,11.30
2023-04-24T02:40:05.049Z,12.63
2023-04-24T02:45:10.259Z,15.05
2023-04-24T02:50:15.018Z,9.63
2023-04-24T02:55:21.323Z,13.57
2023-04-24T03:00:25.631Z,13.05
2023-04-24T03:05:30.047Z,10.57
2023-04-24T03:10:36.179Z,9.48
2023-04-24T03:15:40.293Z,8.57
2023-04-24T03:20:44.614Z,11.60
2023-04-24T03:25:50.799Z,11.95
2023-04-24T03:30:57.393Z,10.02
2023-04-24T03:36:03.982Z,9.38
2023-04-24T03:41:18.998Z,8.75
2023-04-24T03:46:29.104Z,14.57
2023-04-24T03:51:36.805Z,11.32
2023-04-24T03:56:54.127Z,12.10
2023-04-24T04:01:58.707Z,9.00
2023-04-24T04:07:04.028Z,8.65
2023-04-24T04:12:10.189Z,6.78
2023-04-24T04:17:16.455Z,7.78
2023-04-24T04:22:20.966Z,6.00
2023-04-24T04:27:29.719Z,7.75
2023-04-24T04:32:40.186Z,9.77
2023-04-24T04:37:44.572Z,10.98
2023-04-24T04:43:09.243Z,11.73
2023-04-24T04:48:20.706Z,7.80
2023-04-24T04:53:25.042Z,10.05
2023-04-24T04:58:30.957Z,9.63
2023-04-24T05:03:38.195Z,8.68
2023-04-24T05:08:46.782Z,11.63
2023-04-24T05:14:11.054Z,12.98
2023-04-24T05:19:17.568Z,6.60
2023-04-24T05:24:23.750Z,7.13
2023-04-24T05:29:43.594Z,11.05
2023-04-24T05:34:48.310Z,8.15
2023-04-24T05:39:52.814Z,8.02
2023-04-24T05:44:58.531Z,9.48
2023-04-24T05:50:04.558Z,14.75
2023-04-24T05:55:09.716Z,7.35
2023-04-24T06:00:19.127Z,8.30
2023-04-24T06:05:29.610Z,5.65
2023-04-24T06:10:33.860Z,10.40
2023-04-24T06:15:40.130Z,11.85
2023-04-24T06:20:47.857Z,14.55
2023-04-24T06:25:52.881Z,10.90
2023-04-24T06:30:58.799Z,15.75
2023-04-24T06:36:02.942Z,7.00
2023-04-24T06:41:07.265Z,10.48
2023-04-24T06:46:13.483Z,5.75
2023-04-24T06:51:18.824Z,7.47
2023-04-24T06:56:23.226Z,5.03
2023-04-24T07:01:28.867Z,4.43
2023-04-24T07:06:33.774Z,8.98
2023-04-24T07:11:40.312Z,6.38
2023-04-24T07:16:46.470Z,4.00
2023-04-24T07:21:50.949Z,3.95
2023-04-24T07:26:56.525Z,9.40
2023-04-24T07:32:04.021Z,6.20
2023-04-24T07:37:08.845Z,4.30
2023-04-24T07:42:12.957Z,4.22
2023-04-24T07:47:18.874Z,4.35
2023-04-24T07:52:23.414Z,5.57
2023-04-24T07:57:27.962Z,4.10
2023-04-24T08:02:33.970Z,4.55
2023-04-24T08:07:38.497Z,4.70
2023-04-24T08:12:44.258Z,4.43
2023-04-24T08:17:51.169Z,6.22
2023-04-24T08:22:58.162Z,6.60
2023-04-24T08:28:06.095Z,3.22
2023-04-24T08:33:11.963Z,3.83
2023-04-24T08:38:16.108Z,3.42
2023-04-24T08:43:20.868Z,4.75
2023-04-24T08:48:31.570Z,5.63
2023-04-24T08:53:37.250Z,4.50
2023-04-24T08:58:42.123Z,3.25
2023-04-24T09:03:49.301Z,4.88
2023-04-24T09:08:57.090Z,3.10
2023-04-24T09:14:03.073Z,5.22
2023-04-24T09:19:09.240Z,7.40
2023-04-24T09:24:19.629Z,5.55
2023-04-24T09:29:24.024Z,6.35
2023-04-24T09:34:29.994Z,5.65
2023-04-24T09:39:34.104Z,3.58
2023-04-24T09:44:38.726Z,3.60
2023-04-24T09:49:45.215Z,3.45
2023-04-24T09:54:55.291Z,4.10
2023-04-24T10:00:00.161Z,4.93
2023-04-24T10:05:06.358Z,4.95
2023-04-24T10:10:11.881Z,5.28
2023-04-24T10:15:18.871Z,5.53
2023-04-24T10:20:26.545Z,5.20
2023-04-24T10:25:32.205Z,5.28
2023-04-24T10:30:37.487Z,5.45
2023-04-24T10:35:48.997Z,4.88
2023-04-24T10:40:53.227Z,7.03
2023-04-24T10:46:05.687Z,23.58
2023-04-24T10:51:14.720Z,7.22
2023-04-24T10:56:19.505Z,8.77
2023-04-24T11:01:28.573Z,5.32
2023-04-24T11:06:36.946Z,6.07
2023-04-24T11:11:47.514Z,7.57
2023-04-24T11:16:56.414Z,12.75
2023-04-24T11:22:04.360Z,7.57
2023-04-24T11:27:15.165Z,5.55
2023-04-24T11:32:21.551Z,9.07
2023-04-24T11:37:30.266Z,5.88
2023-04-24T11:42:37.464Z,5.28
2023-04-24T11:47:42.779Z,5.53
2023-04-24T11:52:50.096Z,8.70
2023-04-24T11:57:58.840Z,9.02
2023-04-24T12:03:08.509Z,6.13
2023-04-24T12:08:14.422Z,10.32
2023-04-24T12:13:18.866Z,4.80
2023-04-24T12:18:25.049Z,4.40
2023-04-24T12:23:40.264Z,7.10
2023-04-24T12:28:44.749Z,6.35
2023-04-24T12:33:49.134Z,5.88
2023-04-24T12:38:56.825Z,5.97
2023-04-24T12:44:01.353Z,4.63
2023-04-24T12:49:05.458Z,6.10
2023-04-24T12:54:11.781Z,5.05
2023-04-24T12:59:19.170Z,10.27
2023-04-24T13:04:23.519Z,5.25
2023-04-24T13:09:29.288Z,3.35
2023-04-24T13:14:33.781Z,5.03
2023-04-24T13:19:39.471Z,6.88
2023-04-24T13:24:45.118Z,3.90
2023-04-24T13:29:49.545Z,3.70
2023-04-24T13:34:54.334Z,3.65
2023-04-24T13:39:59.891Z,3.88
2023-04-24T13:45:21.302Z,2.70
2023-04-24T13:50:28.857Z,4.07
2023-04-24T13:55:34.694Z,3.63
2023-04-24T14:00:39.136Z,7.30
2023-04-24T14:05:43.912Z,6.22
2023-04-24T14:10:50.058Z,5.15
2023-04-24T14:15:55.064Z,6.43
2023-04-24T14:20:59.344Z,6.03
2023-04-24T14:26:05.223Z,6.40
2023-04-24T14:31:10.382Z,13.02
2023-04-24T14:36:14.957Z,7.50
2023-04-24T14:41:21.258Z,5.07
2023-04-24T14:46:26.018Z,7.30
2023-04-24T14:51:31.559Z,4.55
2023-04-24T14:56:37.582Z,4.90
2023-04-24T15:01:41.767Z,6.10
2023-04-24T15:06:46.448Z,5.60
2023-04-24T15:11:52.708Z,5.13
2023-04-24T15:16:56.967Z,4.50
2023-04-24T15:22:01.209Z,7.00
2023-04-24T15:27:07.354Z,4.35
2023-04-24T15:32:11.755Z,5.30
2023-04-24T15:37:16.925Z,8.38
2023-04-24T15:42:22.714Z,5.15
2023-04-24T15:47:27.274Z,5.45
2023-04-24T15:52:31.876Z,4.43
2023-04-24T15:57:37.610Z,6.85
2023-04-24T16:02:42.288Z,4.50
2023-04-24T16:07:46.882Z,4.50
2023-04-24T16:12:53.648Z,5.93
2023-04-24T16:17:58.806Z,4.03
2023-04-24T16:23:03.413Z,5.20
2023-04-24T16:28:09.566Z,6.05
2023-04-24T16:33:13.969Z,5.75
2023-04-24T16:38:18.253Z,7.55
2023-04-24T16:43:24.101Z,5.80
2023-04-24T16:48:28.571Z,6.65
2023-04-24T16:53:32.982Z,5.97
2023-04-24T16:58:38.581Z,7.75
2023-04-24T17:03:43.141Z,9.82
2023-04-24T17:08:48.326Z,10.77
2023-04-24T17:13:54.410Z,12.77
2023-04-24T17:18:58.658Z,11.20
2023-04-24T17:24:02.791Z,13.43
2023-04-24T17:29:08.799Z,9.07
2023-04-24T17:34:13.001Z,9.85
2023-04-24T17:39:17.939Z,12.85
2023-04-24T17:44:23.492Z,11.20
2023-04-24T17:49:27.818Z,11.70
2023-04-24T17:54:32.147Z,15.25
2023-04-24T17:59:38.041Z,14.75
2023-04-24T18:04:43.672Z,13.55
2023-04-24T18:09:48.266Z,13.00
2023-04-24T18:14:59.907Z,14.68
2023-04-24T18:20:19.583Z,10.15
2023-04-24T18:25:27.208Z,13.32
2023-04-24T18:30:34.892Z,12.48
2023-04-24T18:35:39.499Z,15.45
2023-04-24T18:40:44.349Z,16.33
2023-04-24T18:45:49.899Z,15.13
2023-04-24T18:50:54.330Z,18.20
2023-04-24T18:55:58.993Z,14.50
2023-04-24T19:01:06.824Z,19.00
2023-04-24T19:06:12.228Z,26.17
2023-04-24T19:11:16.348Z,31.63
2023-04-24T19:16:22.309Z,39.05
2023-04-24T19:21:26.772Z,75.50
2023-04-24T19:26:31.737Z,38.58
2023-04-24T19:31:37.335Z,32.92
2023-04-24T19:36:41.982Z,29.48
2023-04-24T19:41:46.608Z,26.83
2023-04-24T19:46:52.475Z,29.02
2023-04-24T19:51:56.968Z,26.70
2023-04-24T19:57:01.999Z,30.38
2023-04-24T20:02:08.037Z,27.88
2023-04-24T20:07:12.436Z,38.25
2023-04-24T20:12:17.009Z,34.08
2023-04-24T20:17:22.899Z,41.05
2023-04-24T20:22:27.149Z,41.50
2023-04-24T20:27:32.664Z,45.10
2023-04-24T20:32:41.310Z,43.22
2023-04-24T20:37:45.793Z,45.78
2023-04-24T20:42:49.958Z,40.33
2023-04-24T20:47:55.499Z,40.10
2023-04-24T20:52:59.840Z,40.72
2023-04-24T20:58:04.538Z,44.45
2023-04-24T21:03:10.521Z,40.50
2023-04-24T21:08:14.802Z,37.53
2023-04-24T21:13:19.585Z,35.33
2023-04-24T21:18:26.380Z,38.15
2023-04-24T21:23:30.637Z,26.83
2023-04-24T21:28:35.296Z,24.13
2023-04-24T21:33:41.204Z,21.65
2023-04-24T21:38:45.323Z,13.13
2023-04-24T21:43:50.958Z,8.15
2023-04-24T21:48:56.850Z,7.15
2023-04-24T21:54:01.031Z,4.97
2023-04-24T21:59:05.863Z,5.50
2023-04-24T22:04:11.943Z,4.97
2023-04-24T22:09:16.572Z,5.40
2023-04-24T22:14:21.106Z,4.78
2023-04-24T22:19:28.423Z,4.05
2023-04-24T22:24:32.688Z,5.13
2023-04-24T22:29:37.155Z,4.15
2023-04-24T22:34:42.694Z,5.00
2023-04-24T22:39:47.018Z,7.45
2023-04-24T22:44:51.260Z,6.10
2023-04-24T22:49:58.705Z,6.72
2023-04-24T22:55:02.822Z,8.73
2023-04-24T23:00:11.411Z,13.65
2023-04-24T23:05:17.321Z,15.75
2023-04-24T23:10:21.906Z,14.23
2023-04-24T23:15:26.360Z,13.32
2023-04-24T23:20:32.162Z,15.50
2023-04-24T23:25:36.859Z,14.05
2023-04-24T23:30:41.208Z,8.63
2023-04-24T23:35:47.381Z,7.20
2023-04-24T23:40:52.235Z,8.50
2023-04-24T23:45:56.977Z,8.60
2023-04-24T23:51:03.043Z,14.75
2023-04-24T23:56:07.626Z,17.90
